Wyatt, Louisiana
Current Conditions -  °F | °C
As of 8:55 AM on Monday 24 Nov 2014 (Local Time) from KRSN Reporting Station
Clear Clear  
Wind Chill: 52°   Ceiling: Unl
Heat Index: 52°   Visibility: 10mi
Dew Point: 39°   Wind: 7mph
Humidity: 63%   Direction: 340°NNW
Pressure: 29.99"   Gusts: NA
Location:  32.2275°N, 92.6417°W
Report Text: KRSN 241455Z AUTO 34006KT 10SM CLR 11/04 A2999 RMK AO2 P0001 60003 T01090041
Loading
Personal Weather Stations






























Interactive Weather Map New forecast layout! Learn more

10-Day Weather Forecast

Advertisements
Track Severe Weather on mobile